Shetucket River @ Willimantic, Ct

Shetucket River at Willimantic
 Total Drainage Area: 401 sq. miles 
 Drainage Area Controlled by Corps Dams: 159 sq. miles (40%) 
 Warning Flow/Stage: 4,005 cfs / 7.5 feet 
 Flood Flow/Stage: 9,160 cfs / 11.3 feet 
Date Time
(Eastern)
Stage
(ft)
Flow
(cfs)
CSM
(cfs / sq. mi.)
Jan-31 03:30 pm 4.84 1,578 3.9
Jan-31 02:30 pm 4.86 1,592 4.0
Jan-31 01:30 pm 4.88 1,607 4.0
Jan-31 12:30 pm 4.90 1,621 4.0
Jan-31 11:30 am 4.84 1,578 3.9
Jan-31 10:30 am 4.85 1,585 4.0
Jan-31 09:30 am 4.90 1,621 4.0
Jan-31 08:30 am 4.91 1,628 4.1
Jan-31 07:30 am 4.93 1,643 4.1
Jan-31 06:30 am 4.93 1,643 4.1
Jan-31 05:30 am 4.93 1,643 4.1
Jan-31 04:30 am 4.95 1,658 4.1
Jan-31 03:30 am 4.96 1,665 4.2
Jan-31 02:30 am 4.96 1,665 4.2
Jan-31 01:30 am 4.97 1,672 4.2
Jan-31 12:30 am 4.98 1,679 4.2
Jan-30 11:30 pm 4.98 1,679 4.2
Jan-30 10:30 pm 5.00 1,694 4.2
Jan-30 09:30 pm 5.00 1,694 4.2
Jan-30 08:30 pm 5.00 1,694 4.2
Jan-30 07:30 pm 5.04 1,723 4.3
Jan-30 06:30 pm 5.07 1,745 4.4
Jan-30 05:30 pm 5.13 1,789 4.5
Jan-30 04:30 pm 5.24 1,872 4.7
Jan-30 03:30 pm 5.38 1,979 4.9
Report Generated January 31, 2023 04:17 pm